Time;durP1;ratioP1;P1;durP2;ratioP2;P2;SDS_P1;SDS_P2;PMS_P1;PMS_P2;Temp;Humidity;BMP_temperature;BMP_pressure;BME280_temperature;BME280_humidity;BME280_pressure;Samples;Min_cycle;Max_cycle;Signal;HPM_P1;HPM_P2
2022/05/06 00:01:51;;;;;;;5.55;3.72;;;14.50;99.90;;;;;;5097459;28;20043;-78
2022/05/06 00:04:17;;;;;;;4.55;3.47;;;14.50;99.90;;;;;;5096288;28;20024;-77
2022/05/06 00:06:43;;;;;;;7.28;3.53;;;14.50;99.90;;;;;;5097384;28;20034;-77
2022/05/06 00:09:09;;;;;;;5.57;3.35;;;14.50;99.90;;;;;;5096248;28;20020;-77
2022/05/06 00:11:35;;;;;;;6.75;3.47;;;14.50;99.90;;;;;;5095978;28;20441;-78
2022/05/06 00:14:01;;;;;;;6.68;3.60;;;14.40;99.90;;;;;;5090117;28;20475;-77
2022/05/06 00:16:28;;;;;;;6.30;4.35;;;14.40;99.90;;;;;;5081988;28;20055;-77
2022/05/06 00:18:54;;;;;;;5.53;3.40;;;14.30;99.90;;;;;;5097473;28;20021;-77
2022/05/06 00:21:21;;;;;;;4.15;3.55;;;14.30;99.90;;;;;;5097269;28;20020;-77
2022/05/06 00:23:47;;;;;;;6.15;3.78;;;14.20;99.90;;;;;;5097051;28;20020;-77
2022/05/06 00:26:13;;;;;;;4.80;3.28;;;14.20;99.90;;;;;;5090962;28;20035;-77
2022/05/06 00:28:40;;;;;;;7.45;4.10;;;14.10;99.90;;;;;;5097305;28;20522;-78
2022/05/06 00:31:09;;;;;;;5.65;3.70;;;14.00;99.90;;;;;;5097017;28;20162;-78
2022/05/06 00:33:35;;;;;;;4.55;3.58;;;13.90;99.90;;;;;;5097136;28;20024;-77
2022/05/06 00:36:02;;;;;;;4.97;4.00;;;13.90;99.90;;;;;;5097388;28;20028;-78
2022/05/06 00:38:29;;;;;;;4.90;4.18;;;13.80;99.90;;;;;;5096889;28;20491;-78
2022/05/06 00:40:55;;;;;;;7.78;3.72;;;13.80;99.90;;;;;;5095712;28;20020;-78
2022/05/06 00:43:24;;;;;;;9.23;4.78;;;13.80;99.90;;;;;;5097074;28;20028;-78
2022/05/06 00:45:54;;;;;;;4.28;3.60;;;13.70;99.90;;;;;;5089016;28;20040;-75
2022/05/06 00:48:28;;;;;;;5.53;3.65;;;13.70;99.90;;;;;;5095803;28;20039;-77
2022/05/06 00:50:58;;;;;;;8.77;4.15;;;13.60;99.90;;;;;;5096918;28;20028;-77
2022/05/06 00:53:25;;;;;;;4.82;3.83;;;13.50;99.90;;;;;;5096762;28;20039;-75
2022/05/06 00:55:51;;;;;;;6.32;3.65;;;13.40;99.90;;;;;;5095485;28;20024;-77
2022/05/06 00:58:18;;;;;;;5.20;4.25;;;13.40;99.90;;;;;;5097258;28;20031;-77
2022/05/06 01:00:45;;;;;;;7.05;4.05;;;13.30;99.90;;;;;;5098550;28;20104;-77
2022/05/06 01:03:11;;;;;;;6.60;3.45;;;13.30;99.90;;;;;;5099608;28;20032;-77
2022/05/06 01:05:39;;;;;;;4.80;4.00;;;13.20;99.90;;;;;;5100589;28;20434;-77
2022/05/06 01:08:05;;;;;;;7.60;4.22;;;13.10;99.90;;;;;;5099249;28;20082;-78
2022/05/06 01:10:31;;;;;;;4.88;3.88;;;13.10;99.90;;;;;;5100659;28;20028;-77
2022/05/06 01:12:57;;;;;;;7.00;4.07;;;13.00;99.90;;;;;;5100746;28;20028;-77
2022/05/06 01:15:26;;;;;;;5.30;4.22;;;13.00;99.90;;;;;;5094939;28;20016;-76
2022/05/06 01:17:54;;;;;;;8.73;4.75;;;12.90;99.90;;;;;;5092838;28;20020;-77
2022/05/06 01:20:21;;;;;;;20.05;5.15;;;12.90;99.90;;;;;;5099044;28;20034;-77
2022/05/06 01:22:49;;;;;;;7.05;4.38;;;12.80;99.90;;;;;;5100567;28;20028;-78
2022/05/06 01:25:16;;;;;;;4.95;4.45;;;12.80;99.90;;;;;;5094182;28;20028;-77
2022/05/06 01:27:55;;;;;;;6.88;4.50;;;12.80;99.90;;;;;;5100445;28;20024;-77
2022/05/06 01:30:34;;;;;;;5.15;4.05;;;12.80;99.90;;;;;;5100370;28;20016;-76
2022/05/06 01:33:03;;;;;;;4.93;4.38;;;12.80;99.90;;;;;;5099187;28;20111;-76
2022/05/06 01:35:30;;;;;;;7.10;4.05;;;12.70;99.90;;;;;;5100418;28;20012;-76
2022/05/06 01:38:00;;;;;;;8.88;4.63;;;12.70;99.90;;;;;;5099835;28;20529;-78
2022/05/06 01:40:28;;;;;;;5.22;4.47;;;12.60;99.90;;;;;;5099160;28;20023;-77
2022/05/06 01:42:57;;;;;;;6.40;4.93;;;12.60;99.90;;;;;;5098678;28;20115;-77
2022/05/06 01:45:24;;;;;;;5.90;4.50;;;12.50;99.90;;;;;;5093603;28;20045;-77
2022/05/06 01:47:52;;;;;;;7.47;5.60;;;12.40;99.90;;;;;;5097759;28;20016;-76
2022/05/06 01:50:21;;;;;;;7.25;5.43;;;12.40;99.90;;;;;;5100147;28;20426;-77
2022/05/06 01:52:50;;;;;;;6.05;5.28;;;12.40;99.90;;;;;;5099615;28;20055;-77
2022/05/06 01:55:17;;;;;;;5.07;4.57;;;12.40;99.90;;;;;;5098666;28;20032;-77
2022/05/06 01:57:44;;;;;;;9.10;5.22;;;12.30;99.90;;;;;;5099930;28;20027;-77
2022/05/06 02:00:12;;;;;;;7.72;4.53;;;12.30;99.90;;;;;;5099772;28;20591;-77
2022/05/06 02:02:38;;;;;;;9.43;5.30;;;12.30;99.90;;;;;;5098325;28;20024;-77
2022/05/06 02:05:24;;;;;;;6.03;5.22;;;12.30;99.90;;;;;;5098432;28;20024;-77
2022/05/06 02:07:53;;;;;;;5.35;4.82;;;12.20;99.90;;;;;;5097932;28;20020;-77
2022/05/06 02:10:21;;;;;;;6.88;4.70;;;12.20;99.90;;;;;;5098076;28;20044;-77
2022/05/06 02:12:47;;;;;;;4.95;4.45;;;12.20;99.90;;;;;;5098406;28;20027;-78
2022/05/06 02:15:15;;;;;;;5.88;4.55;;;12.10;99.90;;;;;;5093993;28;20865;-77
2022/05/06 02:17:41;;;;;;;8.55;5.18;;;12.10;99.90;;;;;;5088699;28;20020;-76
2022/05/06 02:20:09;;;;;;;7.88;5.30;;;12.00;99.90;;;;;;5099191;28;20028;-77
2022/05/06 02:22:37;;;;;;;6.78;5.63;;;12.00;99.90;;;;;;5099501;28;20013;-77
2022/05/06 02:25:09;;;;;;;5.68;4.82;;;12.00;99.90;;;;;;5097901;28;20055;-77
2022/05/06 02:27:38;;;;;;;7.47;4.82;;;12.00;99.90;;;;;;5099278;28;20012;-76
2022/05/06 02:35:34;;;;;;;8.73;4.80;;;12.00;99.90;;;;;;5099267;28;20050;-75
2022/05/06 02:38:00;;;;;;;5.63;4.55;;;12.00;99.90;;;;;;5097312;28;20020;-76
2022/05/06 02:40:27;;;;;;;11.75;5.40;;;12.00;99.90;;;;;;5099061;28;20054;-77
2022/05/06 02:42:53;;;;;;;7.93;5.65;;;12.00;99.90;;;;;;5098867;28;20154;-77
2022/05/06 02:45:19;;;;;;;7.90;5.00;;;12.00;99.90;;;;;;5092779;28;20052;-76
2022/05/06 02:47:45;;;;;;;5.63;4.95;;;12.00;99.90;;;;;;5099037;28;20083;-74
2022/05/06 02:50:11;;;;;;;7.28;4.88;;;12.00;99.90;;;;;;5094567;28;20028;-75
2022/05/06 02:52:37;;;;;;;6.00;4.85;;;12.00;99.90;;;;;;5095484;28;20024;-73
2022/05/06 02:55:04;;;;;;;11.07;5.85;;;12.00;99.90;;;;;;5098507;28;20028;-77
2022/05/06 02:57:29;;;;;;;11.27;5.10;;;12.00;99.90;;;;;;5092852;28;20017;-76
2022/05/06 02:59:55;;;;;;;6.45;5.35;;;12.00;99.90;;;;;;5089264;28;20034;-74
2022/05/06 03:02:21;;;;;;;7.05;5.55;;;12.00;99.90;;;;;;5097082;28;20083;-74
2022/05/06 03:04:47;;;;;;;9.27;6.22;;;11.90;99.90;;;;;;5098643;28;20021;-75
2022/05/06 03:07:13;;;;;;;9.57;5.55;;;11.90;99.90;;;;;;5096967;28;20032;-77
2022/05/06 03:09:39;;;;;;;6.70;5.90;;;11.80;99.90;;;;;;5096820;28;20099;-73
2022/05/06 03:12:06;;;;;;;5.70;5.05;;;11.80;99.90;;;;;;5098240;28;20031;-75
2022/05/06 03:14:32;;;;;;;6.35;5.00;;;11.80;99.90;;;;;;5096757;28;20023;-74
2022/05/06 03:16:58;;;;;;;6.03;4.60;;;11.80;99.90;;;;;;5083255;28;20020;-75
2022/05/06 03:19:24;;;;;;;9.63;4.95;;;11.80;99.90;;;;;;5098525;28;20023;-75
2022/05/06 03:21:57;;;;;;;5.47;4.70;;;11.80;99.90;;;;;;5096861;28;20523;-75
2022/05/06 03:24:23;;;;;;;6.25;5.35;;;11.80;99.90;;;;;;5097634;28;20027;-74
2022/05/06 03:26:49;;;;;;;9.63;6.25;;;11.80;99.90;;;;;;5097925;28;20021;-75
2022/05/06 03:29:15;;;;;;;9.50;5.75;;;11.70;99.90;;;;;;5096671;28;20372;-74
2022/05/06 03:31:40;;;;;;;7.03;5.03;;;11.80;99.90;;;;;;5097881;28;20077;-75
2022/05/06 03:34:06;;;;;;;7.13;4.80;;;11.70;99.90;;;;;;5096523;28;20021;-74
2022/05/06 03:36:33;;;;;;;5.53;4.90;;;11.80;99.90;;;;;;5096473;28;20020;-75
2022/05/06 03:39:00;;;;;;;9.07;4.97;;;11.80;99.90;;;;;;5097693;28;20020;-74
2022/05/06 03:41:26;;;;;;;5.93;4.93;;;11.80;99.90;;;;;;5096642;28;20024;-74
2022/05/06 03:43:52;;;;;;;7.78;4.65;;;11.80;99.90;;;;;;5096351;28;20053;-73
2022/05/06 03:46:18;;;;;;;7.72;5.35;;;11.80;99.90;;;;;;5089461;28;20044;-74
2022/05/06 03:48:43;;;;;;;7.35;4.57;;;11.70;99.90;;;;;;5097857;28;20476;-75
2022/05/06 03:51:22;;;;;;;6.47;4.70;;;11.70;99.90;;;;;;5096330;28;20051;-74
2022/05/06 03:53:49;;;;;;;7.45;5.45;;;11.70;99.90;;;;;;5095898;28;20395;-75
2022/05/06 03:56:15;;;;;;;7.50;4.93;;;11.70;99.90;;;;;;5096257;28;20028;-75
2022/05/06 03:58:41;;;;;;;9.25;5.45;;;11.70;99.90;;;;;;5097519;28;20016;-75
2022/05/06 04:01:07;;;;;;;11.80;5.22;;;11.70;99.90;;;;;;5097704;28;20050;-74
2022/05/06 04:03:33;;;;;;;5.28;4.72;;;11.60;99.90;;;;;;5097634;28;20487;-75
2022/05/06 04:05:59;;;;;;;10.25;4.88;;;11.60;99.90;;;;;;5096151;28;20506;-75
2022/05/06 04:08:25;;;;;;;7.65;5.70;;;11.60;99.90;;;;;;5097151;28;20024;-75
2022/05/06 04:10:51;;;;;;;7.90;5.68;;;11.60;99.90;;;;;;5097503;28;20476;-75
2022/05/06 04:13:18;;;;;;;8.57;5.57;;;11.50;99.90;;;;;;5096250;28;20460;-74
2022/05/06 04:15:48;;;;;;;6.82;5.28;;;11.50;99.90;;;;;;5087398;28;20065;-74
2022/05/06 04:18:14;;;;;;;8.05;6.05;;;11.50;99.90;;;;;;5092730;28;20479;-74
2022/05/06 04:23:30;;;;;;;6.80;5.63;;;11.40;99.90;;;;;;5096878;28;20098;-74
2022/05/06 04:26:06;;;;;;;5.63;4.82;;;11.40;99.90;;;;;;5097131;28;20115;-75
2022/05/06 04:28:34;;;;;;;9.15;5.13;;;11.40;99.90;;;;;;5095892;28;20109;-74
2022/05/06 04:31:00;;;;;;;8.88;5.25;;;11.40;99.90;;;;;;5095574;28;20475;-74
2022/05/06 04:33:26;;;;;;;7.82;4.82;;;11.40;99.90;;;;;;5097158;28;20023;-75
2022/05/06 04:35:53;;;;;;;6.00;5.40;;;11.30;99.90;;;;;;5097942;28;20185;-75
2022/05/06 04:38:20;;;;;;;6.93;5.60;;;11.40;99.90;;;;;;5101433;28;20060;-75
2022/05/06 04:40:47;;;;;;;6.03;4.40;;;11.40;99.90;;;;;;5099881;28;20056;-76
2022/05/06 04:43:13;;;;;;;10.27;5.90;;;11.30;99.90;;;;;;5099933;28;20027;-74
2022/05/06 04:45:41;;;;;;;6.47;5.60;;;11.30;99.90;;;;;;5093025;28;20036;-75
2022/05/06 04:48:08;;;;;;;8.38;5.68;;;11.30;99.90;;;;;;5101271;28;20024;-74
2022/05/06 04:50:36;;;;;;;6.57;5.47;;;11.30;99.90;;;;;;5100921;28;20027;-75
2022/05/06 04:53:02;;;;;;;6.60;5.97;;;11.30;99.90;;;;;;5099444;28;20108;-74
2022/05/06 04:55:28;;;;;;;6.88;5.25;;;11.30;99.90;;;;;;5100925;28;20146;-75
2022/05/06 04:57:54;;;;;;;7.43;6.30;;;11.30;99.90;;;;;;5099616;28;20054;-74
2022/05/06 05:00:21;;;;;;;7.63;6.15;;;11.30;99.90;;;;;;5100653;28;20020;-76
2022/05/06 05:02:48;;;;;;;7.28;5.93;;;11.30;99.90;;;;;;5099578;28;20491;-75
2022/05/06 05:05:14;;;;;;;7.60;6.25;;;11.30;99.90;;;;;;5099471;28;20124;-75
2022/05/06 05:07:40;;;;;;;7.55;5.55;;;11.30;99.90;;;;;;5099086;28;20377;-74
2022/05/06 05:10:08;;;;;;;8.90;6.25;;;11.30;99.90;;;;;;5099303;28;20028;-74
2022/05/06 05:12:35;;;;;;;9.85;6.20;;;11.30;99.90;;;;;;5100743;28;20074;-74
2022/05/06 05:15:02;;;;;;;9.55;6.30;;;11.30;99.90;;;;;;5097089;28;20500;-75
2022/05/06 05:17:28;;;;;;;8.93;6.45;;;11.30;99.90;;;;;;5089695;28;20023;-74
2022/05/06 05:19:53;;;;;;;9.05;6.68;;;11.40;99.90;;;;;;5098837;28;20024;-75
2022/05/06 05:22:20;;;;;;;10.00;6.65;;;11.40;99.90;;;;;;5099152;28;20028;-74
2022/05/06 05:24:47;;;;;;;9.90;6.43;;;11.40;99.90;;;;;;5098761;28;20039;-75
2022/05/06 05:27:13;;;;;;;11.40;7.65;;;11.50;99.90;;;;;;5100375;28;20073;-74
2022/05/06 05:29:40;;;;;;;12.77;6.78;;;11.50;99.90;;;;;;5098682;28;20032;-75
2022/05/06 05:32:07;;;;;;;11.00;7.30;;;11.50;99.90;;;;;;5082318;28;20066;-75
2022/05/06 05:34:32;;;;;;;12.60;7.85;;;11.60;99.90;;;;;;5095621;28;20150;-75
2022/05/06 05:36:59;;;;;;;11.52;7.53;;;11.60;99.90;;;;;;5098991;28;20044;-74
2022/05/06 05:39:25;;;;;;;12.25;7.72;;;11.60;99.90;;;;;;5098401;28;20025;-74
2022/05/06 05:41:50;;;;;;;8.93;6.75;;;11.70;99.90;;;;;;5094525;28;20056;-74
2022/05/06 05:49:45;;;;;;;10.88;7.90;;;11.80;99.90;;;;;;5100116;28;20035;-73
2022/05/06 05:52:11;;;;;;;9.95;7.50;;;11.90;99.90;;;;;;5098536;28;20024;-75
2022/05/06 05:54:38;;;;;;;14.05;8.82;;;11.90;99.90;;;;;;5098461;28;20069;-75
2022/05/06 05:57:05;;;;;;;8.70;7.28;;;12.00;99.90;;;;;;5099741;28;20031;-76
2022/05/06 05:59:33;;;;;;;10.77;7.70;;;12.00;99.90;;;;;;5098391;28;20016;-75
2022/05/06 06:02:01;;;;;;;9.82;7.65;;;12.00;99.90;;;;;;5094451;28;20020;-75
2022/05/06 06:04:27;;;;;;;15.63;7.60;;;12.10;99.90;;;;;;5086957;28;20031;-76
2022/05/06 06:06:53;;;;;;;7.97;6.65;;;12.00;99.90;;;;;;5099593;28;20020;-75
2022/05/06 06:09:22;;;;;;;8.77;7.15;;;12.00;99.90;;;;;;5098117;28;20058;-76
2022/05/06 06:11:50;;;;;;;11.88;7.47;;;12.00;99.90;;;;;;5099526;28;20030;-75
2022/05/06 06:14:17;;;;;;;13.45;7.07;;;12.00;99.90;;;;;;5092418;28;20042;-76
2022/05/06 06:16:43;;;;;;;15.57;8.63;;;12.00;99.90;;;;;;5084258;28;20135;-75
2022/05/06 06:19:10;;;;;;;8.80;7.25;;;12.10;99.90;;;;;;5099504;28;20016;-74
2022/05/06 06:21:36;;;;;;;11.68;7.05;;;12.20;99.90;;;;;;5088544;28;20111;-76
2022/05/06 06:24:02;;;;;;;14.52;6.75;;;12.40;99.90;;;;;;5097169;28;20038;-74
2022/05/06 06:26:28;;;;;;;10.68;7.38;;;12.50;99.90;;;;;;5079765;28;20519;-75
2022/05/06 06:28:54;;;;;;;16.15;7.35;;;12.60;99.90;;;;;;5078652;28;20388;-75
2022/05/06 06:31:21;;;;;;;10.32;6.88;;;12.70;99.90;;;;;;5080648;28;20032;-74
2022/05/06 06:33:47;;;;;;;13.13;5.82;;;12.90;99.90;;;;;;5062094;28;20051;-75
2022/05/06 06:36:13;;;;;;;8.77;6.68;;;13.00;99.90;;;;;;5082786;28;20020;-75
2022/05/06 06:38:39;;;;;;;9.25;7.20;;;13.10;99.90;;;;;;5078279;28;20013;-74
2022/05/06 06:41:05;;;;;;;8.68;6.38;;;13.10;99.90;;;;;;5079427;28;20023;-76
2022/05/06 06:43:31;;;;;;;15.27;7.03;;;13.20;99.90;;;;;;5088072;28;20030;-75
2022/05/06 06:45:57;;;;;;;9.88;6.43;;;13.20;99.90;;;;;;5096838;28;20052;-75
2022/05/06 06:48:26;;;;;;;14.38;6.85;;;13.30;99.90;;;;;;5096982;28;20039;-76
2022/05/06 06:50:52;;;;;;;7.15;5.95;;;13.30;99.90;;;;;;5077531;28;20040;-76
2022/05/06 06:53:19;;;;;;;11.70;6.40;;;13.50;99.90;;;;;;5088002;28;20099;-75
2022/05/06 06:55:45;;;;;;;10.73;6.43;;;13.60;99.90;;;;;;5097298;28;20058;-76
2022/05/06 06:58:11;;;;;;;10.50;5.97;;;13.70;99.90;;;;;;5096644;28;20480;-75
2022/05/06 07:00:37;;;;;;;6.60;5.25;;;13.80;99.90;;;;;;5096982;28;20091;-75
2022/05/06 07:03:04;;;;;;;11.40;6.13;;;13.80;99.90;;;;;;5087390;28;20021;-77
2022/05/06 07:05:30;;;;;;;10.60;6.97;;;13.80;99.90;;;;;;5080155;28;20036;-76
2022/05/06 07:13:25;;;;;;;12.75;6.50;;;13.90;99.90;;;;;;5098281;28;20087;-75
2022/05/06 07:15:51;;;;;;;13.98;6.88;;;13.90;99.90;;;;;;5071574;28;20048;-78
2022/05/06 07:18:17;;;;;;;10.73;6.07;;;13.90;99.90;;;;;;5090607;28;20078;-77
2022/05/06 07:20:43;;;;;;;12.85;6.32;;;13.90;99.90;;;;;;5086163;28;20020;-77
2022/05/06 07:23:10;;;;;;;8.23;5.82;;;13.90;99.90;;;;;;5090166;28;20048;-75
2022/05/06 07:25:37;;;;;;;7.68;5.82;;;13.80;99.90;;;;;;5082818;28;20397;-76
2022/05/06 07:28:04;;;;;;;10.13;6.03;;;13.90;99.90;;;;;;5078957;28;20571;-75
2022/05/06 07:30:30;;;;;;;10.25;5.85;;;13.90;99.90;;;;;;5096498;28;20062;-75
2022/05/06 07:32:56;;;;;;;10.40;6.45;;;14.00;99.90;;;;;;5097546;28;20017;-75
2022/05/06 07:35:21;;;;;;;8.48;5.75;;;14.00;99.90;;;;;;5096754;28;20059;-75
2022/05/06 07:37:47;;;;;;;10.07;6.57;;;14.00;99.90;;;;;;5097733;28;20031;-75
2022/05/06 07:40:14;;;;;;;9.32;4.70;;;14.10;99.90;;;;;;5098171;28;20027;-74
2022/05/06 07:42:41;;;;;;;7.32;6.15;;;14.20;99.90;;;;;;5096486;28;20527;-76
2022/05/06 07:45:07;;;;;;;17.42;6.22;;;14.30;99.90;;;;;;5089488;28;20040;-74
2022/05/06 07:47:33;;;;;;;9.20;6.00;;;14.40;99.90;;;;;;5091404;28;20020;-74
2022/05/06 07:49:59;;;;;;;18.73;7.57;;;14.50;99.90;;;;;;5075563;28;20107;-73
2022/05/06 07:52:25;;;;;;;14.05;6.85;;;14.50;99.90;;;;;;5092839;28;20059;-74
2022/05/06 07:54:51;;;;;;;11.73;5.70;;;14.60;99.90;;;;;;5097497;28;20032;-74
2022/05/06 07:57:17;;;;;;;11.30;6.28;;;14.60;99.90;;;;;;5095499;28;20030;-76
2022/05/06 07:59:43;;;;;;;7.20;4.63;;;14.60;99.90;;;;;;5087162;28;20043;-74
2022/05/06 08:04:54;;;;;;;9.48;5.78;;;14.70;99.90;;;;;;5086732;28;20035;-76
2022/05/06 08:07:19;;;;;;;11.60;7.22;;;14.70;99.90;;;;;;5095154;28;20036;-76
2022/05/06 08:09:45;;;;;;;7.47;5.63;;;14.80;99.90;;;;;;5082653;28;20028;-76
2022/05/06 08:12:13;;;;;;;11.60;7.80;;;14.90;99.90;;;;;;5084589;28;20149;-75
2022/05/06 08:14:39;;;;;;;17.45;7.97;;;15.00;99.90;;;;;;5081587;28;20489;-75
2022/05/06 08:17:06;;;;;;;7.60;5.82;;;15.00;99.90;;;;;;5081256;28;20598;-74
2022/05/06 08:19:31;;;;;;;6.85;5.30;;;15.10;99.90;;;;;;5085602;28;20030;-74
2022/05/06 08:21:57;;;;;;;10.18;5.60;;;15.20;99.90;;;;;;5096527;28;20051;-74
2022/05/06 08:24:23;;;;;;;7.10;5.07;;;15.30;99.90;;;;;;5090200;28;20430;-75
2022/05/06 08:26:50;;;;;;;6.50;4.53;;;15.40;99.90;;;;;;5097563;28;20043;-76
2022/05/06 08:29:16;;;;;;;7.95;4.85;;;15.40;99.90;;;;;;5080459;28;20036;-75
2022/05/06 08:31:42;;;;;;;6.20;4.30;;;15.50;99.90;;;;;;5089474;28;20074;-75
2022/05/06 08:34:10;;;;;;;10.35;5.53;;;15.50;99.90;;;;;;5088743;28;20028;-76
2022/05/06 08:36:37;;;;;;;9.30;4.47;;;15.70;99.90;;;;;;5093456;28;20048;-77
2022/05/06 08:39:05;;;;;;;6.53;5.00;;;15.80;99.90;;;;;;5085642;28;20021;-75
2022/05/06 08:41:31;;;;;;;10.63;5.43;;;16.00;99.90;;;;;;5075816;28;20029;-75
2022/05/06 08:43:58;;;;;;;11.02;5.28;;;16.00;99.90;;;;;;5077768;28;20507;-75
2022/05/06 08:51:59;;;;;;;11.43;5.35;;;16.00;99.90;;;;;;5096830;28;20034;-75
2022/05/06 08:54:25;;;;;;;5.28;4.57;;;16.10;99.90;;;;;;5096869;28;20031;-75
2022/05/06 08:56:52;;;;;;;9.52;4.90;;;16.20;99.90;;;;;;5095703;28;20020;-73
2022/05/06 08:59:18;;;;;;;12.65;4.80;;;16.30;99.90;;;;;;5097113;28;20047;-75
2022/05/06 09:01:44;;;;;;;9.43;4.88;;;16.40;99.90;;;;;;5088952;28;20477;-75
2022/05/06 09:04:10;;;;;;;9.90;4.80;;;16.40;99.90;;;;;;5097069;28;20052;-79
2022/05/06 09:06:36;;;;;;;8.48;4.82;;;16.50;99.90;;;;;;5097138;28;20495;-75
2022/05/06 09:09:03;;;;;;;9.43;4.82;;;16.60;99.90;;;;;;5095560;28;20047;-75
2022/05/06 09:14:15;;;;;;;6.03;4.50;;;16.80;99.90;;;;;;5096652;28;20078;-75
2022/05/06 09:16:41;;;;;;;6.65;4.55;;;16.90;99.90;;;;;;5082770;28;20544;-75
2022/05/06 09:19:24;;;;;;;13.77;5.40;;;17.00;99.90;;;;;;5095715;28;20039;-76
2022/05/06 09:22:17;;;;;;;8.70;4.03;;;17.10;99.90;;;;;;5098724;28;20372;-76
2022/05/06 09:24:47;;;;;;;6.90;4.43;;;17.00;99.90;;;;;;5098813;28;20028;-78
2022/05/06 09:27:21;;;;;;;5.85;4.82;;;17.10;99.90;;;;;;5100626;28;20020;-74
2022/05/06 09:29:54;;;;;;;9.23;4.28;;;17.10;99.90;;;;;;5098887;28;20036;-75
2022/05/06 09:32:30;;;;;;;10.10;4.53;;;17.20;99.90;;;;;;5082548;28;20050;-74
2022/05/06 09:35:15;;;;;;;9.88;4.88;;;17.30;99.90;;;;;;5099004;28;20077;-74
2022/05/06 09:37:46;;;;;;;6.70;4.55;;;17.30;99.90;;;;;;5098170;28;20035;-75
2022/05/06 09:40:18;;;;;;;9.30;4.75;;;17.40;99.90;;;;;;5100315;28;20388;-75
2022/05/06 09:42:53;;;;;;;8.35;4.18;;;17.50;99.90;;;;;;5100108;28;20013;-75
2022/05/06 09:45:29;;;;;;;12.75;4.32;;;17.50;99.90;;;;;;5096364;28;20411;-74
2022/05/06 09:48:00;;;;;;;10.52;5.18;;;17.70;99.90;;;;;;5086439;28;20024;-75
2022/05/06 09:50:38;;;;;;;7.43;3.95;;;18.00;99.90;;;;;;5098442;28;20048;-76
2022/05/06 09:53:07;;;;;;;7.28;4.07;;;18.10;99.90;;;;;;5099593;28;20032;-74
2022/05/06 09:55:35;;;;;;;6.85;3.97;;;18.00;99.90;;;;;;5099852;28;20020;-76
2022/05/06 09:58:01;;;;;;;4.50;3.53;;;18.20;99.90;;;;;;5099878;28;20407;-74
2022/05/06 10:00:28;;;;;;;7.68;3.85;;;18.10;99.90;;;;;;5099635;28;20020;-74
2022/05/06 10:02:58;;;;;;;10.57;3.78;;;18.00;99.90;;;;;;5099963;28;20103;-74
2022/05/06 10:05:24;;;;;;;6.57;4.30;;;18.10;99.90;;;;;;5099817;28;20078;-75
2022/05/06 10:07:56;;;;;;;7.45;3.67;;;18.10;99.90;;;;;;5099594;28;20054;-76
2022/05/06 10:10:26;;;;;;;9.20;4.13;;;18.10;99.90;;;;;;5099246;28;20508;-75
2022/05/06 10:12:56;;;;;;;5.88;4.13;;;18.20;99.90;;;;;;5098181;28;20103;-76
2022/05/06 10:15:25;;;;;;;4.90;3.55;;;18.20;99.90;;;;;;5079836;28;20031;-76
2022/05/06 10:17:51;;;;;;;5.00;3.10;;;18.00;99.90;;;;;;5084935;28;20024;-76
2022/05/06 10:20:43;;;;;;;8.15;4.50;;;17.90;99.90;;;;;;5096811;28;20024;-76
2022/05/06 10:23:15;;;;;;;7.15;4.53;;;17.70;99.90;;;;;;5098107;28;20035;-74
2022/05/06 10:25:41;;;;;;;5.25;3.95;;;17.60;99.90;;;;;;5098182;28;20097;-75
2022/05/06 10:34:09;;;;;;;6.32;3.35;;;18.40;99.90;;;;;;5097869;28;20092;-75
2022/05/06 10:36:56;;;;;;;9.45;3.72;;;18.50;99.90;;;;;;5097935;28;20085;-76
2022/05/06 10:39:26;;;;;;;6.65;3.17;;;18.30;99.90;;;;;;5097614;28;20449;-76
2022/05/06 10:42:07;;;;;;;5.47;3.45;;;18.10;99.90;;;;;;5099097;28;20467;-75
2022/05/06 10:44:42;;;;;;;5.03;2.83;;;18.10;99.90;;;;;;5098755;28;20028;-75
2022/05/06 10:47:11;;;;;;;8.55;3.05;;;18.00;99.90;;;;;;5099045;28;20032;-76
2022/05/06 10:49:40;;;;;;;6.63;2.97;;;18.00;99.90;;;;;;5099070;28;20028;-75
2022/05/06 10:52:19;;;;;;;7.15;3.30;;;18.20;99.90;;;;;;5098942;28;20116;-75
2022/05/06 10:54:51;;;;;;;8.38;3.13;;;18.50;99.90;;;;;;5097389;28;20028;-75
2022/05/06 10:57:21;;;;;;;4.85;2.85;;;18.90;99.90;;;;;;5097338;28;20112;-75
2022/05/06 10:59:48;;;;;;;4.65;3.03;;;18.80;99.90;;;;;;5098547;28;20051;-75
2022/05/06 11:02:16;;;;;;;4.97;2.72;;;18.80;99.90;;;;;;5098741;28;20017;-75
2022/05/06 11:04:51;;;;;;;6.55;2.60;;;18.90;99.90;;;;;;5091003;28;20421;-75
2022/05/06 11:07:17;;;;;;;5.78;3.40;;;19.20;99.90;;;;;;5078338;28;20028;-78
2022/05/06 11:09:44;;;;;;;9.27;3.80;;;19.40;99.90;;;;;;5075772;28;20106;-74
2022/05/06 11:12:10;;;;;;;7.97;3.22;;;19.40;99.90;;;;;;5081583;28;20039;-76
2022/05/06 11:14:36;;;;;;;4.68;2.97;;;19.30;99.90;;;;;;5075387;28;20025;-75
2022/05/06 11:17:18;;;;;;;6.13;3.65;;;19.00;99.90;;;;;;5078262;28;20020;-75
2022/05/06 11:19:44;;;;;;;6.75;2.72;;;18.90;99.90;;;;;;5079495;28;20020;-75
2022/05/06 11:22:11;;;;;;;3.47;2.60;;;18.80;99.90;;;;;;5078595;28;20059;-75
2022/05/06 11:24:37;;;;;;;6.82;2.95;;;19.00;99.90;;;;;;5092595;28;20100;-76
2022/05/06 11:27:15;;;;;;;6.38;3.10;;;19.30;99.90;;;;;;5098424;28;20036;-74
2022/05/06 11:29:56;;;;;;;3.97;2.75;;;19.30;99.90;;;;;;5092868;28;20024;-76
2022/05/06 11:32:24;;;;;;;7.25;3.28;;;19.40;99.90;;;;;;5077226;28;20033;-75
2022/05/06 11:35:01;;;;;;;5.07;2.80;;;19.30;99.90;;;;;;5079541;28;20024;-75
2022/05/06 11:37:29;;;;;;;13.70;3.53;;;19.10;99.90;;;;;;5077622;28;20027;-75
2022/05/06 11:42:40;;;;;;;4.00;2.75;;;18.70;99.90;;;;;;5078161;28;20395;-75
2022/05/06 11:47:51;;;;;;;4.57;2.60;;;18.50;99.90;;;;;;5082571;28;20035;-75
2022/05/06 11:50:17;;;;;;;6.60;2.97;;;18.70;99.90;;;;;;5077810;28;20029;-75
2022/05/06 11:52:46;;;;;;;2.83;2.40;;;18.90;99.90;;;;;;5061155;28;20118;-75
2022/05/06 11:55:15;;;;;;;7.45;3.40;;;19.00;99.90;;;;;;5090261;28;20077;-74
2022/05/06 11:57:42;;;;;;;5.65;3.15;;;19.10;99.90;;;;;;5091154;28;20030;-76
2022/05/06 12:00:08;;;;;;;5.03;3.00;;;19.20;99.90;;;;;;5077179;28;20074;-76
2022/05/06 12:02:34;;;;;;;5.45;3.10;;;19.30;99.90;;;;;;5096920;28;20028;-76
2022/05/06 12:05:00;;;;;;;4.30;2.95;;;19.30;99.90;;;;;;5097403;28;20020;-75
2022/05/06 12:07:47;;;;;;;7.20;2.58;;;19.20;99.90;;;;;;5095924;28;20039;-76
2022/05/06 12:10:27;;;;;;;6.60;2.97;;;19.10;99.90;;;;;;5096004;28;20028;-75
2022/05/06 12:12:57;;;;;;;7.88;2.80;;;19.10;99.90;;;;;;5096149;28;20111;-74
2022/05/06 12:15:30;;;;;;;5.05;2.63;;;19.10;99.90;;;;;;5090640;28;20047;-74
2022/05/06 12:18:17;;;;;;;5.00;2.40;;;19.20;99.90;;;;;;5090187;28;20027;-75
2022/05/06 12:20:43;;;;;;;8.73;3.33;;;19.40;99.90;;;;;;5097353;28;20388;-78
2022/05/06 12:23:11;;;;;;;5.63;2.10;;;19.40;99.80;;;;;;5095878;28;20024;-76
2022/05/06 12:25:41;;;;;;;4.50;2.50;;;19.20;99.90;;;;;;5095699;28;20058;-74
2022/05/06 12:28:13;;;;;;;7.40;3.22;;;19.10;99.90;;;;;;5096002;28;20052;-75
2022/05/06 12:30:40;;;;;;;4.28;2.55;;;18.90;99.90;;;;;;5097488;28;20036;-77
2022/05/06 12:33:12;;;;;;;7.85;2.38;;;18.90;99.90;;;;;;5097038;28;20484;-75
2022/05/06 12:36:04;;;;;;;7.20;3.00;;;19.00;99.90;;;;;;5088434;28;20024;-77
2022/05/06 12:38:48;;;;;;;5.53;2.58;;;19.00;99.90;;;;;;5096999;28;20021;-77
2022/05/06 12:41:22;;;;;;;2.90;2.42;;;19.30;99.90;;;;;;5097257;28;20023;-76
2022/05/06 12:43:49;;;;;;;5.05;2.47;;;19.80;99.90;;;;;;5074898;28;20057;-76
2022/05/06 12:46:29;;;;;;;7.80;3.63;;;20.10;99.90;;;;;;5078445;28;20048;-75
2022/05/06 12:51:42;;;;;;;10.30;3.13;;;20.20;99.90;;;;;;5097226;28;20350;-74
2022/05/06 12:54:10;;;;;;;5.57;2.45;;;20.30;99.90;;;;;;5077685;28;20024;-77
2022/05/06 12:56:37;;;;;;;1.95;1.58;;;20.30;98.60;;;;;;5088495;28;20107;-76
2022/05/06 12:59:04;;;;;;;5.43;2.35;;;20.20;97.90;;;;;;5099600;28;20024;-76
2022/05/06 13:01:30;;;;;;;4.53;2.78;;;20.10;96.80;;;;;;5090539;28;20035;-76
2022/05/06 13:03:56;;;;;;;8.57;3.05;;;20.10;96.60;;;;;;5081426;28;20060;-76
2022/05/06 13:06:22;;;;;;;6.40;3.50;;;20.00;97.90;;;;;;5079801;28;20050;-76
2022/05/06 13:08:48;;;;;;;4.07;2.70;;;19.90;99.50;;;;;;5084788;28;20020;-78
2022/05/06 13:11:13;;;;;;;6.38;2.38;;;19.90;99.90;;;;;;5100743;28;20028;-77
2022/05/06 13:13:40;;;;;;;8.70;3.00;;;20.00;99.90;;;;;;5100512;28;20027;-75
2022/05/06 13:16:06;;;;;;;5.40;2.50;;;20.10;99.90;;;;;;5089119;28;20080;-77
2022/05/06 13:18:32;;;;;;;8.10;2.60;;;20.10;98.80;;;;;;5098203;28;20523;-76
2022/05/06 13:20:58;;;;;;;5.43;2.97;;;20.30;98.70;;;;;;5089009;28;20091;-75
2022/05/06 13:23:24;;;;;;;4.60;2.83;;;20.50;98.50;;;;;;5097913;28;20103;-75
2022/05/06 13:25:50;;;;;;;5.00;2.75;;;20.60;98.00;;;;;;5089377;28;20074;-76
2022/05/06 13:28:16;;;;;;;6.65;2.92;;;20.70;98.50;;;;;;5084298;28;20031;-76
2022/05/06 13:30:42;;;;;;;4.45;2.17;;;20.70;97.40;;;;;;5098995;28;20030;-77
2022/05/06 13:33:08;;;;;;;6.93;2.72;;;20.70;97.00;;;;;;5094481;28;20031;-77
2022/05/06 13:35:34;;;;;;;5.10;2.88;;;20.70;97.00;;;;;;5078902;28;20025;-77